Time;durP1;ratioP1;P1;durP2;ratioP2;P2;SDS_P1;SDS_P2;PMS_P1;PMS_P2;Temp;Humidity;BMP_temperature;BMP_pressure;BME280_temperature;BME280_humidity;BME280_pressure;Samples;Min_cycle;Max_cycle;Signal;HPM_P1;HPM_P2
2023/10/27 00:08:43;;;;;;;8.63;2.20;;;17.10;99.90;;;;;;5067062;28;20204;-80
2023/10/27 00:11:35;;;;;;;13.15;2.20;;;17.20;99.90;;;;;;5068171;28;20280;-79
2023/10/27 00:14:19;;;;;;;12.43;2.20;;;17.10;99.90;;;;;;5056262;28;20228;-80
2023/10/27 00:17:06;;;;;;;11.07;2.20;;;17.10;99.90;;;;;;5057240;28;20216;-79
2023/10/27 00:19:38;;;;;;;9.70;2.15;;;17.20;99.90;;;;;;5048653;28;20197;-79
2023/10/27 00:22:09;;;;;;;11.60;1.73;;;17.10;99.90;;;;;;5042261;28;20176;-80
2023/10/27 00:28:28;;;;;;;8.35;2.10;;;17.20;99.90;;;;;;5052743;28;20219;-80
2023/10/27 00:31:02;;;;;;;9.50;2.08;;;17.30;99.90;;;;;;5033332;28;20197;-80
2023/10/27 00:45:23;;;;;;;5.75;1.60;;;17.30;99.90;;;;;;4987783;28;20233;-79
2023/10/27 00:48:24;;;;;;;7.78;2.13;;;17.40;99.90;;;;;;4991823;28;20205;-79
2023/10/27 00:51:05;;;;;;;8.43;1.90;;;17.50;99.90;;;;;;5003965;28;20283;-79
2023/10/27 00:54:06;;;;;;;6.50;1.83;;;17.60;99.90;;;;;;5007548;28;20190;-79
2023/10/27 00:56:53;;;;;;;8.90;2.20;;;17.90;99.90;;;;;;4988240;28;20211;-80
2023/10/27 00:59:30;;;;;;;10.80;2.60;;;18.20;99.90;;;;;;4988356;28;20199;-80
2023/10/27 01:02:48;;;;;;;8.20;1.92;;;18.20;99.90;;;;;;5026455;23;20227;-80
2023/10/27 01:05:28;;;;;;;9.70;1.98;;;18.30;99.90;;;;;;5132110;22;20240;-80
2023/10/27 01:07:59;;;;;;;11.13;2.20;;;18.40;99.90;;;;;;5031321;28;20223;-78
2023/10/27 01:14:11;;;;;;;7.53;2.10;;;18.90;99.90;;;;;;5046560;28;20197;-78
2023/10/27 01:17:32;;;;;;;8.05;2.05;;;18.90;99.90;;;;;;5043840;28;20676;-78
2023/10/27 01:23:36;;;;;;;8.90;1.65;;;19.20;99.90;;;;;;5045890;28;20196;-78
2023/10/27 01:26:28;;;;;;;4.75;1.92;;;19.40;99.90;;;;;;5043557;28;20228;-75
2023/10/27 01:29:28;;;;;;;9.38;1.90;;;19.50;99.90;;;;;;5040869;28;20185;-76
2023/10/27 01:34:52;;;;;;;6.60;1.80;;;19.50;99.90;;;;;;5035045;28;20664;-78
2023/10/27 01:37:28;;;;;;;5.57;1.45;;;19.60;99.90;;;;;;5045547;28;20205;-78
2023/10/27 01:43:20;;;;;;;10.02;2.50;;;19.30;99.90;;;;;;5053666;28;20181;-80
2023/10/27 01:46:23;;;;;;;11.95;3.15;;;19.00;99.90;;;;;;5040786;28;20204;-79
2023/10/27 01:48:56;;;;;;;11.15;3.50;;;18.60;99.90;;;;;;5028650;28;20203;-80
2023/10/27 01:52:08;;;;;;;13.20;2.10;;;18.50;99.90;;;;;;5044439;28;20212;-79
2023/10/27 01:54:43;;;;;;;7.50;2.00;;;18.50;99.90;;;;;;5040031;28;20189;-81
2023/10/27 01:57:28;;;;;;;6.97;1.77;;;18.50;99.90;;;;;;5032529;28;20227;-79
2023/10/27 02:00:04;;;;;;;6.57;1.42;;;18.60;99.90;;;;;;5032139;28;20738;-80
2023/10/27 02:02:35;;;;;;;7.47;1.42;;;18.80;99.90;;;;;;5038532;28;20288;-79
2023/10/27 02:08:40;;;;;;;7.18;1.83;;;19.20;99.90;;;;;;5040849;28;20201;-79
2023/10/27 02:11:29;;;;;;;11.13;1.50;;;19.10;99.90;;;;;;5086175;22;20767;-79
2023/10/27 02:14:02;;;;;;;5.70;1.23;;;19.10;99.90;;;;;;5029266;28;20201;-78
2023/10/27 02:16:41;;;;;;;5.97;1.20;;;18.90;99.90;;;;;;5016895;28;20263;-79
2023/10/27 02:22:35;;;;;;;7.15;2.28;;;18.50;99.90;;;;;;5041311;28;20219;-76
2023/10/27 02:25:10;;;;;;;6.15;1.10;;;18.40;99.90;;;;;;5048120;28;20197;-78
2023/10/27 02:28:01;;;;;;;5.30;1.20;;;18.70;99.90;;;;;;5033645;28;20224;-78
2023/10/27 02:31:25;;;;;;;5.15;1.00;;;19.00;99.90;;;;;;5048545;28;20448;-78
2023/10/27 02:41:27;;;;;;;5.93;1.70;;;19.80;99.90;;;;;;5029815;28;20212;-77
2023/10/27 02:45:02;;;;;;;3.97;1.00;;;20.00;99.90;;;;;;5023450;28;20201;-79
2023/10/27 02:47:32;;;;;;;4.95;1.17;;;20.30;99.90;;;;;;5038006;28;20224;-79
2023/10/27 02:50:11;;;;;;;5.30;1.38;;;20.60;99.90;;;;;;5042350;28;20201;-80
2023/10/27 02:56:48;;;;;;;5.63;2.00;;;20.60;99.90;;;;;;5038617;28;20774;-77
2023/10/27 03:02:34;;;;;;;5.13;1.45;;;20.10;99.90;;;;;;5035911;28;20288;-78
2023/10/27 03:05:05;;;;;;;7.75;1.00;;;20.20;99.90;;;;;;5046027;28;20660;-78
2023/10/27 03:08:11;;;;;;;7.80;1.60;;;20.30;99.90;;;;;;5035309;28;20229;-79
2023/10/27 03:10:46;;;;;;;5.50;1.90;;;20.50;99.90;;;;;;5041491;23;20209;-79
2023/10/27 03:13:23;;;;;;;4.97;1.45;;;20.90;99.90;;;;;;5016254;28;20197;-79
2023/10/27 03:15:57;;;;;;;9.07;1.92;;;20.80;99.90;;;;;;5009422;28;20221;-79
2023/10/27 03:24:34;;;;;;;7.15;1.70;;;20.20;99.90;;;;;;5065261;28;20220;-80
2023/10/27 03:33:01;;;;;;;5.63;1.35;;;19.50;99.90;;;;;;5040889;28;20198;-79
2023/10/27 03:35:32;;;;;;;3.80;1.10;;;19.70;99.90;;;;;;5040227;28;20211;-80
2023/10/27 03:38:03;;;;;;;4.78;1.50;;;19.90;99.90;;;;;;5046324;28;20638;-78
2023/10/27 03:40:34;;;;;;;3.63;1.30;;;20.20;99.90;;;;;;5045509;28;20193;-78
2023/10/27 03:43:24;;;;;;;3.30;1.00;;;20.40;99.90;;;;;;5066285;28;20252;-79
2023/10/27 03:49:32;;;;;;;4.93;1.30;;;20.70;99.90;;;;;;5055288;28;20207;-78
2023/10/27 03:52:42;;;;;;;4.13;1.00;;;21.00;99.90;;;;;;5088660;28;20192;-78
2023/10/27 03:59:01;;;;;;;3.80;1.02;;;20.90;99.90;;;;;;5065197;28;20200;-77
2023/10/27 04:04:52;;;;;;;4.20;0.70;;;20.70;99.90;;;;;;5061272;28;20208;-78
2023/10/27 04:14:13;;;;;;;5.28;1.30;;;20.20;99.90;;;;;;5061850;28;20550;-77
2023/10/27 04:19:51;;;;;;;3.13;1.08;;;20.20;99.90;;;;;;5133287;27;20544;-94
2023/10/27 04:22:25;;;;;;;5.65;1.20;;;20.40;99.90;;;;;;5137525;28;20205;-92
2023/10/27 04:25:05;;;;;;;6.60;1.15;;;20.80;99.90;;;;;;5137974;28;20193;-91
2023/10/27 04:27:36;;;;;;;7.70;1.52;;;20.60;99.90;;;;;;5139223;27;20193;-92
2023/10/27 04:30:11;;;;;;;5.00;1.35;;;20.20;99.90;;;;;;5129645;28;20204;-93
2023/10/27 04:32:47;;;;;;;12.75;1.88;;;19.60;99.90;;;;;;5127274;28;20204;-96
2023/10/27 04:35:36;;;;;;;7.25;1.67;;;19.00;99.90;;;;;;5122008;28;20202;-96
2023/10/27 04:38:07;;;;;;;8.80;1.88;;;18.70;99.90;;;;;;5132314;27;20252;-93
2023/10/27 04:40:39;;;;;;;8.07;1.75;;;18.50;99.90;;;;;;5123456;27;20245;-95
2023/10/27 04:43:12;;;;;;;9.23;1.63;;;18.30;99.90;;;;;;5113787;27;20560;-94
2023/10/27 04:45:43;;;;;;;6.78;1.58;;;18.20;99.90;;;;;;5112047;28;20277;-92
2023/10/27 04:48:14;;;;;;;8.02;1.55;;;18.20;99.90;;;;;;5122660;28;20212;-95
2023/10/27 04:50:55;;;;;;;7.18;1.60;;;18.10;99.90;;;;;;5128874;28;20206;-93
2023/10/27 04:53:26;;;;;;;8.98;1.80;;;18.10;99.90;;;;;;5124814;27;20285;-93
2023/10/27 04:55:58;;;;;;;9.55;2.10;;;18.20;99.90;;;;;;5112536;28;20629;-93
2023/10/27 04:58:29;;;;;;;6.30;1.65;;;18.30;99.90;;;;;;5110825;28;20254;-95
2023/10/27 05:01:03;;;;;;;8.25;1.58;;;18.40;99.90;;;;;;5126942;27;20210;-93
2023/10/27 05:03:34;;;;;;;6.75;1.70;;;18.60;99.90;;;;;;5127529;27;20233;-94
2023/10/27 05:06:12;;;;;;;4.13;1.27;;;18.80;99.90;;;;;;5126585;27;20225;-95
2023/10/27 05:08:43;;;;;;;3.85;1.10;;;18.70;99.90;;;;;;5126750;27;20198;-92
2023/10/27 05:11:17;;;;;;;4.65;1.27;;;18.90;99.90;;;;;;5118654;28;20515;-94
2023/10/27 05:13:48;;;;;;;3.83;1.27;;;19.10;99.90;;;;;;5118533;28;20198;-93
2023/10/27 05:16:19;;;;;;;5.35;1.20;;;19.40;99.90;;;;;;5119842;28;20194;-94
2023/10/27 05:18:50;;;;;;;5.03;1.10;;;20.10;99.90;;;;;;5110971;28;20257;-94
2023/10/27 05:21:26;;;;;;;4.30;1.30;;;20.30;99.90;;;;;;5113228;28;20210;-92
2023/10/27 05:23:58;;;;;;;4.57;1.20;;;20.80;99.90;;;;;;5120428;28;20202;-93
2023/10/27 05:26:29;;;;;;;6.75;1.30;;;21.40;99.90;;;;;;5132961;27;20209;-93
2023/10/27 05:29:00;;;;;;;5.40;1.17;;;21.90;99.90;;;;;;5125920;27;20562;-92
2023/10/27 05:31:31;;;;;;;4.47;1.40;;;21.70;99.90;;;;;;5099355;28;20301;-94
2023/10/27 05:34:03;;;;;;;8.60;1.58;;;21.40;99.90;;;;;;5108113;28;20244;-93
2023/10/27 05:36:38;;;;;;;3.92;1.10;;;20.70;99.90;;;;;;5113336;28;20202;-92
2023/10/27 05:39:11;;;;;;;4.05;1.17;;;20.50;99.90;;;;;;5111612;28;20217;-94
2023/10/27 05:41:42;;;;;;;4.45;1.10;;;20.20;99.90;;;;;;5099539;28;20210;-93
2023/10/27 05:44:13;;;;;;;6.18;1.02;;;20.80;99.90;;;;;;5113265;28;20203;-92
2023/10/27 05:46:44;;;;;;;4.95;1.40;;;21.20;99.90;;;;;;5106908;28;20198;-92
2023/10/27 05:49:14;;;;;;;4.93;1.05;;;21.30;99.90;;;;;;5108937;28;20191;-92
2023/10/27 05:51:48;;;;;;;3.78;0.75;;;21.30;99.90;;;;;;5095689;28;20624;-92
2023/10/27 05:54:23;;;;;;;3.03;0.80;;;21.40;99.90;;;;;;5095558;28;20651;-94
2023/10/27 05:56:53;;;;;;;1.98;0.75;;;21.60;99.90;;;;;;5095856;28;20569;-93
2023/10/27 05:59:24;;;;;;;3.45;0.90;;;22.00;99.90;;;;;;5098346;28;20215;-93
2023/10/27 06:01:56;;;;;;;2.10;0.73;;;22.60;99.90;;;;;;5105262;28;20217;-94
2023/10/27 06:07:17;;;;;;;6.95;1.30;;;22.40;99.90;;;;;;5111477;28;20248;-95
2023/10/27 06:09:49;;;;;;;6.05;1.23;;;22.40;99.90;;;;;;5093733;28;20209;-92
2023/10/27 06:12:19;;;;;;;3.63;0.90;;;22.00;99.90;;;;;;5099388;28;20211;-92
2023/10/27 06:14:50;;;;;;;4.90;1.25;;;21.70;99.90;;;;;;5102586;28;20194;-95
2023/10/27 06:17:21;;;;;;;7.00;1.20;;;21.50;99.90;;;;;;5093181;28;20298;-93
2023/10/27 06:19:53;;;;;;;6.05;1.00;;;21.20;99.90;;;;;;5098745;28;20215;-94
2023/10/27 06:22:27;;;;;;;5.70;1.40;;;21.10;99.90;;;;;;5095315;28;20195;-93
2023/10/27 06:24:59;;;;;;;6.43;1.35;;;20.80;99.90;;;;;;5097492;28;20211;-94
2023/10/27 06:27:30;;;;;;;3.92;1.20;;;20.40;99.90;;;;;;5097027;28;20253;-93
2023/10/27 06:32:49;;;;;;;5.53;1.05;;;20.20;99.90;;;;;;5096815;28;20194;-95
2023/10/27 06:35:20;;;;;;;5.18;1.00;;;20.00;99.90;;;;;;5095421;28;20276;-94
2023/10/27 06:38:09;;;;;;;5.20;1.10;;;20.80;99.90;;;;;;5107503;28;20333;-93
2023/10/27 06:47:18;;;;;;;3.83;1.15;;;22.00;99.90;;;;;;5085677;28;20238;-92
2023/10/27 06:49:56;;;;;;;3.67;1.00;;;21.60;99.90;;;;;;5097983;28;20203;-93
2023/10/27 06:52:30;;;;;;;6.65;2.00;;;21.10;99.90;;;;;;5090562;28;20210;-93
2023/10/27 06:55:22;;;;;;;5.07;1.38;;;20.60;99.90;;;;;;5102057;28;20211;-96
2023/10/27 06:58:03;;;;;;;3.83;2.00;;;20.30;99.90;;;;;;5103240;28;20286;-93
2023/10/27 07:00:36;;;;;;;4.18;1.50;;;20.10;99.90;;;;;;5096024;28;20207;-94
2023/10/27 07:03:11;;;;;;;4.22;1.30;;;19.90;99.90;;;;;;5097819;28;20221;-93
2023/10/27 07:05:44;;;;;;;4.43;1.50;;;19.80;99.90;;;;;;5099337;28;20195;-93
2023/10/27 07:08:22;;;;;;;12.05;4.00;;;19.70;99.90;;;;;;5097569;28;20198;-92
2023/10/27 07:11:29;;;;;;;4.75;1.63;;;20.20;99.90;;;;;;5104390;28;20206;-93
2023/10/27 07:14:01;;;;;;;4.47;1.50;;;21.10;99.90;;;;;;5087780;28;20680;-93
2023/10/27 07:16:32;;;;;;;5.45;1.48;;;20.80;99.90;;;;;;5094020;28;20217;-92
2023/10/27 07:19:04;;;;;;;5.07;1.33;;;20.40;99.90;;;;;;5096141;28;20258;-93
2023/10/27 07:21:36;;;;;;;7.97;1.33;;;20.20;99.90;;;;;;5092464;28;20213;-92
2023/10/27 07:24:08;;;;;;;5.70;2.22;;;20.50;99.90;;;;;;5083969;28;20219;-92
2023/10/27 07:26:42;;;;;;;3.25;0.85;;;20.40;99.90;;;;;;5088981;28;20234;-92
2023/10/27 07:29:15;;;;;;;4.72;1.00;;;20.10;99.90;;;;;;5094763;28;20230;-93
2023/10/27 07:31:46;;;;;;;5.10;1.45;;;19.60;99.90;;;;;;5086780;28;20219;-93
2023/10/27 07:34:17;;;;;;;14.70;5.18;;;19.40;99.90;;;;;;5089054;28;20200;-92
2023/10/27 07:36:48;;;;;;;4.40;1.25;;;19.20;99.90;;;;;;5086578;28;20205;-92
2023/10/27 07:39:19;;;;;;;4.28;1.45;;;19.10;99.90;;;;;;5092630;28;20221;-93
2023/10/27 07:41:53;;;;;;;6.32;1.63;;;18.90;99.90;;;;;;5095625;28;20206;-92
2023/10/27 07:44:24;;;;;;;9.15;3.80;;;18.80;99.90;;;;;;5093988;28;20209;-92
2023/10/27 07:46:55;;;;;;;3.95;1.63;;;18.70;99.90;;;;;;5087341;27;20223;-93
2023/10/27 07:49:26;;;;;;;5.55;2.33;;;18.60;99.90;;;;;;5073968;28;20257;-93
2023/10/27 07:51:58;;;;;;;7.05;1.98;;;18.60;99.90;;;;;;5091768;28;20227;-92
2023/10/27 07:54:29;;;;;;;8.10;2.25;;;18.60;99.90;;;;;;5090012;28;20649;-93
2023/10/27 07:57:04;;;;;;;6.20;1.95;;;18.50;99.90;;;;;;5352051;22;20231;-93
2023/10/27 07:59:36;;;;;;;5.97;1.70;;;18.50;99.90;;;;;;5077882;28;20226;-92
2023/10/27 08:02:07;;;;;;;6.13;2.58;;;18.40;99.90;;;;;;5099088;28;20223;-91
2023/10/27 08:04:39;;;;;;;6.18;2.67;;;18.40;99.90;;;;;;5090210;28;20207;-93
2023/10/27 08:07:09;;;;;;;5.35;1.40;;;18.30;99.90;;;;;;5069773;28;20283;-93
2023/10/27 08:09:41;;;;;;;9.48;3.28;;;18.30;99.90;;;;;;5073305;28;20207;-92
2023/10/27 08:12:16;;;;;;;4.93;1.70;;;18.20;99.90;;;;;;5055773;28;20256;-93
2023/10/27 08:14:47;;;;;;;5.50;1.30;;;18.20;99.90;;;;;;5070899;28;20195;-92
2023/10/27 08:17:18;;;;;;;5.13;1.70;;;18.20;99.90;;;;;;5072791;28;20747;-91
2023/10/27 08:19:48;;;;;;;4.75;1.90;;;18.20;99.90;;;;;;5072792;28;20226;-91
2023/10/27 08:22:19;;;;;;;13.45;6.03;;;18.20;99.90;;;;;;5072825;28;20291;-90
2023/10/27 08:24:53;;;;;;;9.65;3.38;;;18.20;99.90;;;;;;5072024;28;20215;-93
2023/10/27 08:27:26;;;;;;;7.93;2.38;;;18.10;99.90;;;;;;5068878;28;20208;-92
2023/10/27 08:29:59;;;;;;;7.65;2.53;;;18.10;99.90;;;;;;5067935;28;20267;-93
2023/10/27 08:32:31;;;;;;;5.05;1.60;;;18.10;99.90;;;;;;5072996;28;20294;-92
2023/10/27 08:35:01;;;;;;;6.00;1.50;;;18.10;99.90;;;;;;5070987;28;20212;-92
2023/10/27 08:37:33;;;;;;;8.73;1.83;;;18.10;99.90;;;;;;5073418;28;20214;-93
2023/10/27 08:40:04;;;;;;;10.10;2.30;;;18.00;99.90;;;;;;5071996;28;20223;-91
2023/10/27 08:42:37;;;;;;;5.65;2.13;;;18.00;99.90;;;;;;5073060;28;20200;-92
2023/10/27 08:45:11;;;;;;;5.90;1.52;;;18.00;99.90;;;;;;5081447;28;20200;-93
2023/10/27 08:47:42;;;;;;;13.77;4.20;;;18.00;99.90;;;;;;5073556;28;20204;-92
2023/10/27 08:50:13;;;;;;;11.55;4.15;;;18.00;99.90;;;;;;5076000;28;20227;-93
2023/10/27 08:52:46;;;;;;;7.57;1.58;;;18.00;99.90;;;;;;5059980;28;20283;-93
2023/10/27 08:55:20;;;;;;;4.55;1.40;;;18.00;99.90;;;;;;5059571;28;20283;-92
2023/10/27 08:58:00;;;;;;;7.93;2.08;;;18.00;99.90;;;;;;5080257;28;20246;-90
2023/10/27 09:05:38;;;;;;;9.48;3.80;;;17.90;99.90;;;;;;5060198;28;20236;-79
2023/10/27 09:08:18;;;;;;;4.70;1.75;;;17.90;99.90;;;;;;5041062;28;20203;-81
2023/10/27 09:27:46;;;;;;;6.10;2.40;;;17.70;99.90;;;;;;5049374;28;20215;-79
2023/10/27 09:30:27;;;;;;;8.00;2.17;;;17.60;99.90;;;;;;5055196;28;20193;-78
2023/10/27 09:33:12;;;;;;;7.60;2.08;;;17.60;99.90;;;;;;5066927;28;20197;-79
2023/10/27 09:35:43;;;;;;;6.63;1.95;;;17.70;99.90;;;;;;5041861;28;20204;-80
2023/10/27 09:44:47;;;;;;;4.95;1.58;;;17.70;99.90;;;;;;5045060;28;20272;-79
2023/10/27 09:50:41;;;;;;;5.53;1.92;;;17.60;99.90;;;;;;5016779;23;20233;-91
2023/10/27 09:53:15;;;;;;;5.65;2.00;;;17.60;99.90;;;;;;4999808;28;20223;-91
2023/10/27 09:55:49;;;;;;;6.93;2.22;;;17.60;99.90;;;;;;4999854;28;20659;-94
2023/10/27 09:58:21;;;;;;;5.90;1.55;;;17.60;99.90;;;;;;5001260;28;20218;-93
2023/10/27 10:01:00;;;;;;;6.20;1.80;;;17.60;99.90;;;;;;4992356;28;20747;-93
2023/10/27 10:03:32;;;;;;;4.80;1.50;;;17.60;99.90;;;;;;5002420;28;20592;-92
2023/10/27 10:06:15;;;;;;;5.78;1.60;;;17.50;99.90;;;;;;4998895;28;20202;-93
2023/10/27 10:09:09;;;;;;;5.63;1.27;;;17.60;99.90;;;;;;4999913;28;20241;-92
2023/10/27 10:11:55;;;;;;;6.93;1.40;;;17.60;99.90;;;;;;4998676;28;20234;-93
2023/10/27 10:14:54;;;;;;;4.88;1.13;;;17.50;99.90;;;;;;4979993;28;20207;-92
2023/10/27 10:17:45;;;;;;;4.55;1.10;;;17.50;99.90;;;;;;4953050;28;20207;-93
2023/10/27 10:20:17;;;;;;;6.28;1.60;;;17.50;99.90;;;;;;5000212;28;20226;-94
2023/10/27 10:23:07;;;;;;;5.03;1.50;;;17.50;99.90;;;;;;5009137;28;20206;-91
2023/10/27 10:25:39;;;;;;;2.75;1.00;;;17.50;99.90;;;;;;4999813;28;20202;-92
2023/10/27 10:28:39;;;;;;;6.15;1.90;;;17.50;99.90;;;;;;5000282;28;20271;-93
2023/10/27 10:31:26;;;;;;;4.32;1.10;;;17.50;99.90;;;;;;5000565;28;20615;-93
2023/10/27 10:34:17;;;;;;;4.25;1.20;;;17.50;99.90;;;;;;4994599;28;20211;-92
2023/10/27 10:36:48;;;;;;;7.70;1.48;;;17.50;99.90;;;;;;5001363;28;20230;-92
2023/10/27 10:39:19;;;;;;;5.75;1.27;;;17.50;99.90;;;;;;4986261;28;20286;-93
2023/10/27 10:42:11;;;;;;;5.55;1.10;;;17.60;99.90;;;;;;4999969;28;20214;-92
2023/10/27 10:44:47;;;;;;;3.28;0.90;;;17.60;99.90;;;;;;5002251;28;20215;-93
2023/10/27 10:47:27;;;;;;;4.80;1.17;;;17.50;99.90;;;;;;4997784;28;20267;-92
2023/10/27 10:50:06;;;;;;;2.22;0.98;;;17.40;99.90;;;;;;5002837;28;20236;-93
2023/10/27 10:52:44;;;;;;;2.75;0.85;;;17.40;99.90;;;;;;5014336;28;20206;-93
2023/10/27 10:55:26;;;;;;;3.22;0.85;;;17.40;99.90;;;;;;5020905;28;20221;-93
2023/10/27 10:58:06;;;;;;;6.10;1.63;;;17.40;99.90;;;;;;5019990;28;20213;-92
2023/10/27 11:00:48;;;;;;;2.08;0.65;;;17.40;99.90;;;;;;5019936;28;20256;-95
2023/10/27 11:03:22;;;;;;;5.68;1.27;;;17.40;99.90;;;;;;5019228;28;20209;-92
2023/10/27 11:06:05;;;;;;;3.30;0.80;;;17.40;99.90;;;;;;5022715;28;20643;-92
2023/10/27 11:08:39;;;;;;;2.03;0.77;;;17.40;99.90;;;;;;5022587;28;20629;-92
2023/10/27 11:11:16;;;;;;;2.38;0.80;;;17.40;99.90;;;;;;5018203;28;20253;-94
2023/10/27 11:13:52;;;;;;;6.75;1.20;;;17.40;99.90;;;;;;5016322;28;20187;-94
2023/10/27 11:16:28;;;;;;;4.28;1.00;;;17.40;99.90;;;;;;5009690;28;20212;-95
2023/10/27 11:19:02;;;;;;;6.20;1.10;;;17.30;99.90;;;;;;5007830;28;20198;-95
2023/10/27 11:21:42;;;;;;;3.85;1.20;;;17.30;99.90;;;;;;5019299;28;20670;-92
2023/10/27 11:24:13;;;;;;;3.70;1.08;;;17.30;99.90;;;;;;5016274;28;20232;-91
2023/10/27 11:26:45;;;;;;;4.38;0.93;;;17.30;99.90;;;;;;4996256;28;20226;-93
2023/10/27 11:29:19;;;;;;;4.97;1.00;;;17.40;99.90;;;;;;5014416;28;20248;-93
2023/10/27 11:31:50;;;;;;;5.82;1.30;;;17.40;99.90;;;;;;5016030;28;20221;-93
2023/10/27 11:34:27;;;;;;;3.15;0.90;;;17.40;99.90;;;;;;5016056;28;20209;-93
2023/10/27 11:37:07;;;;;;;6.10;0.90;;;17.40;99.90;;;;;;5015350;28;20202;-93
2023/10/27 11:39:39;;;;;;;4.18;1.17;;;17.40;99.90;;;;;;5015908;28;20225;-94
2023/10/27 11:42:13;;;;;;;4.35;1.15;;;17.40;99.90;;;;;;5011590;28;20265;-95
2023/10/27 11:44:48;;;;;;;3.95;0.90;;;17.40;99.90;;;;;;5022155;28;20205;-94
2023/10/27 11:47:20;;;;;;;3.33;0.90;;;17.30;99.90;;;;;;5014173;28;20285;-95
2023/10/27 11:49:50;;;;;;;2.15;0.77;;;17.30;99.90;;;;;;5019404;28;20229;-90
2023/10/27 11:52:24;;;;;;;1.92;0.80;;;17.20;99.90;;;;;;5025070;28;20206;-90
2023/10/27 11:54:56;;;;;;;2.67;1.05;;;17.20;99.90;;;;;;5018920;28;20288;-94
2023/10/27 11:57:27;;;;;;;3.15;1.10;;;17.20;99.90;;;;;;5016668;28;20325;-93
2023/10/27 11:59:58;;;;;;;5.22;1.00;;;17.30;99.90;;;;;;5006145;28;20217;-93
2023/10/27 12:02:29;;;;;;;2.55;0.93;;;17.20;99.90;;;;;;5016467;28;20205;-93
2023/10/27 12:05:00;;;;;;;3.15;1.00;;;17.30;99.90;;;;;;4996460;28;20768;-92
2023/10/27 12:07:36;;;;;;;3.13;0.90;;;17.30;99.90;;;;;;4995873;28;20336;-93
2023/10/27 12:10:09;;;;;;;4.60;1.23;;;17.30;99.90;;;;;;5025280;28;20243;-94
2023/10/27 12:12:43;;;;;;;6.53;1.48;;;17.20;99.90;;;;;;5034098;28;20646;-94
2023/10/27 12:15:15;;;;;;;2.92;1.20;;;16.80;99.90;;;;;;5013909;28;20298;-94
2023/10/27 12:17:46;;;;;;;4.45;1.40;;;16.70;99.90;;;;;;4990293;28;20210;-93
2023/10/27 12:20:21;;;;;;;4.00;1.02;;;16.70;99.90;;;;;;5016505;28;20214;-94
2023/10/27 12:22:56;;;;;;;4.28;1.33;;;16.70;99.90;;;;;;5021773;28;20232;-93
2023/10/27 12:25:30;;;;;;;3.45;1.20;;;16.70;99.90;;;;;;5001331;28;20228;-93
2023/10/27 12:28:04;;;;;;;3.58;1.10;;;16.60;99.90;;;;;;5031789;28;20205;-94
2023/10/27 12:30:36;;;;;;;5.20;1.30;;;16.70;99.90;;;;;;5037494;28;20216;-93
2023/10/27 12:33:11;;;;;;;4.80;1.10;;;16.60;99.90;;;;;;5034945;28;20197;-94
2023/10/27 12:35:42;;;;;;;8.65;1.98;;;16.70;99.90;;;;;;5036063;28;20203;-94
2023/10/27 12:38:16;;;;;;;4.75;1.23;;;16.60;99.90;;;;;;5035810;28;20198;-95
2023/10/27 12:40:53;;;;;;;3.72;1.00;;;16.50;99.90;;;;;;5038526;28;20241;-96
2023/10/27 12:43:23;;;;;;;5.00;1.38;;;16.50;99.90;;;;;;5041197;28;20196;-94
2023/10/27 12:45:54;;;;;;;2.53;0.90;;;16.60;99.90;;;;;;5039033;28;20178;-94
2023/10/27 12:48:26;;;;;;;5.80;1.20;;;16.60;99.90;;;;;;5030526;28;20194;-95
2023/10/27 12:51:02;;;;;;;6.20;1.10;;;16.60;99.90;;;;;;5039554;28;20221;-96
2023/10/27 12:53:37;;;;;;;3.30;0.90;;;16.70;99.90;;;;;;5038680;28;20206;-93
2023/10/27 12:56:08;;;;;;;3.78;0.90;;;16.70;99.90;;;;;;5039817;28;20208;-94
2023/10/27 12:58:40;;;;;;;4.72;0.88;;;16.70;99.90;;;;;;5036708;28;20285;-96
2023/10/27 13:01:11;;;;;;;5.50;0.82;;;16.70;99.90;;;;;;5044151;28;20216;-96
2023/10/27 13:03:42;;;;;;;4.15;0.90;;;16.80;99.90;;;;;;5046843;28;20205;-95
2023/10/27 13:06:18;;;;;;;3.08;0.60;;;16.80;99.90;;;;;;5039215;28;20271;-96
2023/10/27 13:08:54;;;;;;;2.72;0.70;;;16.80;99.90;;;;;;5039121;28;20206;-94
2023/10/27 13:11:26;;;;;;;1.90;0.55;;;16.90;99.90;;;;;;5039751;28;20213;-96
2023/10/27 13:13:57;;;;;;;3.42;0.90;;;16.90;99.90;;;;;;5038633;28;20190;-96
2023/10/27 13:16:29;;;;;;;4.35;0.77;;;16.90;99.90;;;;;;5027806;28;20274;-95
2023/10/27 13:19:04;;;;;;;2.25;0.60;;;17.00;99.90;;;;;;5008234;28;20195;-96
2023/10/27 13:21:35;;;;;;;3.42;0.65;;;17.00;99.90;;;;;;5028592;28;20284;-95
2023/10/27 13:24:10;;;;;;;4.40;0.70;;;17.00;99.90;;;;;;5025940;28;20205;-94
2023/10/27 13:26:41;;;;;;;3.90;0.70;;;17.00;99.90;;;;;;5027645;28;20269;-93
2023/10/27 13:29:12;;;;;;;2.40;0.77;;;16.90;99.90;;;;;;5023973;28;20217;-95
2023/10/27 13:31:44;;;;;;;1.60;0.50;;;16.90;99.90;;;;;;5021835;28;20266;-94
2023/10/27 13:34:15;;;;;;;4.15;0.73;;;16.90;99.90;;;;;;5035066;28;20214;-95
2023/10/27 13:36:49;;;;;;;4.90;0.73;;;16.90;99.90;;;;;;5028799;28;20214;-94
2023/10/27 13:39:22;;;;;;;4.57;1.25;;;16.90;99.90;;;;;;5033949;28;20216;-94
2023/10/27 13:41:53;;;;;;;4.85;1.38;;;16.70;99.90;;;;;;5023551;28;20341;-94
2023/10/27 13:44:27;;;;;;;4.75;1.20;;;16.50;99.90;;;;;;5029781;28;20228;-94
2023/10/27 13:46:59;;;;;;;4.18;1.10;;;16.40;99.90;;;;;;5023266;28;20568;-94
2023/10/27 13:49:30;;;;;;;5.68;1.20;;;16.40;99.90;;;;;;5022192;28;20210;-96
2023/10/27 13:52:01;;;;;;;5.28;1.02;;;16.30;99.90;;;;;;5004268;28;20290;-95
2023/10/27 13:54:36;;;;;;;2.20;0.98;;;16.10;99.90;;;;;;5003439;28;20253;-95
2023/10/27 13:57:08;;;;;;;5.55;1.13;;;16.00;99.90;;;;;;5018521;28;20217;-95
2023/10/27 13:59:41;;;;;;;4.80;1.20;;;15.90;99.90;;;;;;5018821;28;20202;-95
2023/10/27 14:02:12;;;;;;;3.63;1.15;;;16.00;99.90;;;;;;5016687;28;20245;-96
2023/10/27 14:04:44;;;;;;;4.55;1.00;;;16.00;99.90;;;;;;5018854;28;20202;-95
2023/10/27 14:07:16;;;;;;;6.75;1.48;;;16.00;99.90;;;;;;5019331;28;20226;-94
2023/10/27 14:09:51;;;;;;;4.68;1.17;;;15.90;99.90;;;;;;5018798;28;20205;-95
2023/10/27 14:12:22;;;;;;;4.32;1.05;;;15.90;99.90;;;;;;5020857;28;20197;-94
2023/10/27 14:14:53;;;;;;;5.65;1.30;;;16.00;99.90;;;;;;5015906;28;20197;-96
2023/10/27 14:17:26;;;;;;;4.82;1.15;;;16.00;99.90;;;;;;5019662;28;20297;-94
2023/10/27 14:19:59;;;;;;;6.40;1.08;;;16.10;99.90;;;;;;5015890;28;20202;-95
2023/10/27 14:22:31;;;;;;;3.97;0.70;;;16.10;99.90;;;;;;5015877;28;20225;-94
2023/10/27 14:25:05;;;;;;;2.05;0.68;;;16.20;99.90;;;;;;5009727;28;20213;-93
2023/10/27 14:27:36;;;;;;;2.47;0.70;;;16.20;99.90;;;;;;4998995;28;20285;-92
2023/10/27 14:30:08;;;;;;;3.35;0.88;;;16.30;99.90;;;;;;5007510;28;20277;-94
2023/10/27 14:32:39;;;;;;;3.15;0.50;;;16.40;99.90;;;;;;5018544;28;20210;-93
2023/10/27 14:35:16;;;;;;;2.33;0.68;;;16.40;99.90;;;;;;5014989;28;20670;-93
2023/10/27 14:37:47;;;;;;;2.53;0.75;;;16.50;99.90;;;;;;5012518;28;20209;-93
2023/10/27 14:40:20;;;;;;;3.60;0.70;;;16.50;99.90;;;;;;5007815;28;20209;-94
2023/10/27 14:43:11;;;;;;;3.67;0.80;;;16.50;99.90;;;;;;5026265;28;20189;-92
2023/10/27 14:45:42;;;;;;;2.85;0.70;;;16.50;99.90;;;;;;5019337;28;20270;-91
2023/10/27 14:48:13;;;;;;;2.35;0.60;;;16.60;99.90;;;;;;5035557;28;20782;-93
2023/10/27 14:50:45;;;;;;;3.00;0.60;;;16.60;99.90;;;;;;5017426;28;20293;-94
2023/10/27 14:53:17;;;;;;;2.97;0.70;;;16.60;99.90;;;;;;5016425;28;20248;-92
2023/10/27 14:55:58;;;;;;;2.25;0.50;;;16.60;99.90;;;;;;5014897;28;20293;-94
2023/10/27 14:58:29;;;;;;;1.52;0.60;;;16.60;99.90;;;;;;5013478;28;20277;-92
2023/10/27 15:01:05;;;;;;;1.58;0.50;;;16.70;99.90;;;;;;5012912;28;20309;-92
2023/10/27 15:03:37;;;;;;;2.55;0.57;;;16.70;99.90;;;;;;5005598;28;20220;-93
2023/10/27 15:06:09;;;;;;;1.58;0.47;;;16.70;99.90;;;;;;5000235;28;20206;-93
2023/10/27 15:08:41;;;;;;;1.33;0.40;;;16.70;99.90;;;;;;4999323;28;20214;-93
2023/10/27 15:11:17;;;;;;;1.85;0.70;;;16.80;99.90;;;;;;5018120;28;20222;-93
2023/10/27 15:13:48;;;;;;;3.40;0.70;;;16.80;99.90;;;;;;5001558;28;20304;-94
2023/10/27 15:16:19;;;;;;;1.08;0.35;;;16.80;99.90;;;;;;5012574;28;20646;-92
2023/10/27 15:18:52;;;;;;;2.45;0.70;;;16.80;99.90;;;;;;5015203;28;20214;-92
2023/10/27 15:21:24;;;;;;;2.35;0.57;;;16.80;99.90;;;;;;5014946;28;20221;-92
2023/10/27 15:23:55;;;;;;;1.58;0.60;;;16.80;99.90;;;;;;5015806;28;20216;-92
2023/10/27 15:26:28;;;;;;;1.55;0.35;;;16.80;99.90;;;;;;5014074;28;20201;-92
2023/10/27 15:28:59;;;;;;;1.95;0.52;;;16.80;99.90;;;;;;5014353;28;20214;-92
2023/10/27 15:31:32;;;;;;;2.15;0.60;;;16.80;99.90;;;;;;5015027;28;20570;-92
2023/10/27 15:34:03;;;;;;;2.38;0.57;;;16.80;99.90;;;;;;5020816;28;20253;-94
2023/10/27 15:36:34;;;;;;;2.65;0.50;;;16.80;99.90;;;;;;5019260;28;20316;-93
2023/10/27 15:39:08;;;;;;;1.33;0.65;;;16.80;99.90;;;;;;5024129;28;20230;-91
2023/10/27 15:41:41;;;;;;;1.67;0.60;;;16.70;99.90;;;;;;5010123;28;20272;-92
2023/10/27 15:44:13;;;;;;;5.90;1.13;;;16.70;99.90;;;;;;5004587;28;20198;-92